Terminal Aerodrome Forecast
Issued by NWS Northern Indiana

Home | Current Version | Previous Version | Graphics & Text | Print | Product List | Glossary Off
Versions: 1 2 3 4 5 6 7 8 9 10 11 12 13 14

000
FTUS43 KIWX 281700
TAFFWA
TAF
KFWA 281740Z 2818/2918 18008KT P6SM BKN080
     FM291500 20015G22KT P6SM SCT020 OVC050 WS019/24040KT=

USA.gov is the U.S. government's official web portal to all federal, state and local government web resources and services.